This is the latest recevied weather packets stored in our database for station/object DB7GV-8. If no packets are shown the sender has not sent any weather packets the latest 10 day(s).
| Time | Temp. | Humidity | Pressure | Rain* | Wind** | Luminosity | Snow |
|---|---|---|---|---|---|---|---|
| 1777791888 | 37.22° C | 24% | 1017.5 hPa | - | - | - | - |
| 1777790983 | 32.78° C | 35% | 1017.5 hPa | - | - | - | - |
| 1777790078 | 14.44° C | 69% | 1017.3 hPa | - | - | - | - |
| 1777789172 | 12.78° C | 75% | 1017.2 hPa | - | - | - | - |
| 1777788267 | 12.22° C | 76% | 1017.1 hPa | - | - | - | - |
| 1777787362 | 12.22° C | 77% | 1016.9 hPa | - | - | - | - |
| 1777786456 | 11.11° C | 79% | 1016.9 hPa | - | - | - | - |
| 1777785550 | 10.56° C | 80% | 1016.8 hPa | - | - | - | - |
| 1777784645 | 10° C | 81% | 1016.9 hPa | - | - | - | - |
| 1777783739 | 9.44° C | 81% | 1016.9 hPa | - | - | - | - |
| 1777782834 | 9.44° C | 80% | 1016.9 hPa | - | - | - | - |
| 1777781929 | 8.89° C | 80% | 1016.9 hPa | - | - | - | - |
| 1777781024 | 8.89° C | 80% | 1016.9 hPa | - | - | - | - |
| 1777780118 | 8.89° C | 80% | 1016.9 hPa | - | - | - | - |
| 1777779213 | 8.89° C | 80% | 1017 hPa | - | - | - | - |
| 1777778307 | 8.89° C | 79% | 1017 hPa | - | - | - | - |
| 1777777402 | 9.44° C | 79% | 1017.1 hPa | - | - | - | - |
| 1777776496 | 9.44° C | 78% | 1017.2 hPa | - | - | - | - |
| 1777775592 | 9.44° C | 78% | 1017.3 hPa | - | - | - | - |
| 1777774685 | 9.44° C | 77% | 1017.4 hPa | - | - | - | - |
| 1777773780 | 10° C | 77% | 1017.3 hPa | - | - | - | - |
| 1777768348 | 11.11° C | 73% | 1017.5 hPa | - | - | - | - |
| 1777767443 | 11.11° C | 72% | 1017.5 hPa | - | - | - | - |
| 1777764727 | 11.67° C | 71% | 1017.7 hPa | - | - | - | - |
| 1777760199 | 12.78° C | 68% | 1017.8 hPa | - | - | - | - |
* Rain since midnight (hover to see other rain measurements)
** Current wind speed in m/s (hover to see current wind gust speed)